AirNav   Pilot Hours Calculator
 
 713 users online  

1O8 Tipton Municipal Airport
Tipton, Oklahoma, USA

GOING TO TIPTON?


FAA INFORMATION EFFECTIVE 22 APRIL 2021

Location

FAA Identifier: 1O8
Lat/Long: 34-27-31.0500N 099-10-16.8000W
34-27.517500N 099-10.280000W
34.4586250,-99.1713333
(estimated)
Elevation: 1248 ft. / 380.4 m (surveyed)
Variation: 07E (2000)
From city: 3 miles SW of TIPTON, OK
Time zone: UTC -5 (UTC -6 during Standard Time)
Zip code: 73570

Airport Operations

Airport use: Open to the public
Activation date: 03/1947
Control tower: no
ARTCC: FORT WORTH CENTER
FSS: MC ALESTER FLIGHT SERVICE STATION
NOTAMs facility: MLC (NOTAM-D service available)
Attendance: UNATNDD
Wind indicator: yes
Segmented circle: no
Lights: SS-SR
Beacon: white-green (lighted land airport)
Operates sunset to sunrise.

Airport Communications

CTAF: 122.9
ALTUS APPROACH: 125.1
ALTUS DEPARTURE: 125.1
WX ASOS at FDR (11 nm SE): 132.675 (580-335-7591)
WX AWOS-3 at F05 (15 nm S): 118.525 (940-552-8600)
WX AWOS-3PT at AXS (17 nm NW): 118.825 (580-477-1745)
  • APCH/DEP CTL SVC PRVDD BY FORT WORTH ARTCC (ZFW) ON FREQS 128.4/269.37 (CLINTON-SHERMAN RCAG) & 133.5/350.35 (WICHITA FALLS NR 2 RCAG) WHEN ALTUS APCH CTL (LST) CLSD.

Nearby radio navigation aids

VOR radial/distance  VOR name  Freq  Var
LTSr153/13.2ALTUS VORTAC109.8005E
HBRr182/25.0HOBART VORTAC111.8010E
LAWr258/37.6LAWTON VOR/DME109.4009E

Airport Services

Airframe service: NONE
Powerplant service: NONE
Bottled oxygen: NONE
Bulk oxygen: NONE

Runway Information

Runway 17/35

Dimensions: 3062 x 50 ft. / 933 x 15 m
Surface: asphalt, in poor condition
RWY 17/35 MOD TO SEVERE CRACKING & GRASS GROWING THROUGH CRACKS.
Weight bearing capacity: 
Single wheel: 12.0
Runway edge lights: medium intensity
Runway edge markings: NUMBERS SEVERELY FADED.
RUNWAY 17  RUNWAY 35
Latitude: 34-27.769733N34-27.265017N
Longitude: 099-10.280367W099-10.280017W
Elevation: 1248.0 ft.1246.0 ft.
Traffic pattern: leftleft
Runway heading: 173 magnetic, 180 true353 magnetic, 360 true
Markings: numbers only, in poor conditionnumbers only, in poor condition
Touchdown point: yes, no lightsyes, no lights
Obstructions: 34 ft. pole, 615 ft. from runway, 250 ft. left and right of centerline, 12:1 slope to clear34 ft. pole, 265 ft. from runway, 230 ft. left of centerline, 2:1 slope to clear

Airport Ownership and Management from official FAA records

Ownership: Publicly-owned
Owner: CITY OF TIPTON
PO BOX 460
TIPTON, OK 73570
Phone 580-667-5211
Manager: BRYANT FERRIS
100 W. MAIN ST.
TIPTON, OK 73570
Phone 580-667-5211
MAYOR.

Airport Operational Statistics

Aircraft based on the field: 5
Single engine airplanes: 5
    
Aircraft operations: avg 29/week *
67% local general aviation
33% transient general aviation
* for 12-month period ending 30 November 2018

Additional Remarks

FOR CD CTC FORT WORTH ARTCC AT 817-858-7584.

Instrument Procedures

There are no published instrument procedures at 1O8.

Some nearby airports with instrument procedures:

KFDR - Frederick Regional Airport (11 nm SE)
KLTS - Altus Air Force Base (13 nm N)
F05 - Wilbarger County Airport (15 nm S)
KAXS - Altus/Quartz Mountain Regional Airport (17 nm NW)
2K4 - Scott Field Airport (31 nm NW)
 
Loc | Ops | Rwys | IFR | FBO | Links
Com | Nav | Svcs | Stats | Notes

AirBoss

 
Area around 1O8 (Tipton Municipal Airport)
 
Road maps at: MapQuest Bing Google
 
Aerial photo
No photo
 
Sectional chart

 
Airport distance calculator
Flying to Tipton Municipal Airport? Find the distance to fly.

From to 1O8

Sunrise and sunset
Times for 11-May-2021
 Local
(UTC-5)
 Zulu
(UTC)
Morning civil twilight06:1111:11
Sunrise06:3811:38
Sunset20:2801:28
Evening civil twilight20:5501:55

Current date and time
Zulu (UTC)  12-May-2021 04:09:02
Local (UTC-5)  11-May-2021 23:09:02
 
METAR
KFDR 
11nm SE 
120353Z AUTO 04011KT 10SM BKN021 OVC032 12/09 A3019 RMK AO2 SLP218 T01220089 $
KLTS 
13nm N 
112356Z 03015KT 10SM OVC023 14/09 A3012 RMK AO2A SLP197 T01370089 10153 20136 52016 $
KF05 
15nm S 
120355Z AUTO 04013KT 10SM OVC025 13/10 A3022 RMK AO2 T01330097
KAXS 
17nm NW 
120355Z AUTO 03013KT 10SM OVC042 13/07 A3025 RMK AO2 T01280072
TAF
KLTS 
13nm N 
120100Z 1201/1307 03010KT 9999 FEW012 OVC020 QNH3013INS BECMG 1210/1211 03010KT 9999 FEW020 SCT030 OVC045 QNH3025INS BECMG 1214/1215 04012G20KT 9999 BKN030 QNH3023INS BECMG 1300/1301 07006KT 9999 BKN022 QNH3031INS BECMG 1305/1306 VRB06KT 8000 BR BKN009 QNH3033INS TX19/1221Z TN09/1212Z
NOTAMs
Click for the latest NOTAMs
NOTAMs are issued by the DoD/FAA and will open in a separate window not controlled by AirNav.

 

 
 

Would you like to see your business listed on this page?

 If your business provides an interesting product or service to pilots, flight crews, aircraft, or users of the Tipton Municipal Airport, you should consider listing it here.  To start the listing process, click on the button below
 
Add a business
 

Other Pages about Tipton Municipal Airport

Update a link
 
Copyright © AirNav, LLC. All rights reserved. Privacy Policy  Contact